Time;durP1;ratioP1;P1;durP2;ratioP2;P2;SDS_P1;SDS_P2;PMS_P1;PMS_P2;Temp;Humidity;BMP_temperature;BMP_pressure;BME280_temperature;BME280_humidity;BME280_pressure;Samples;Min_cycle;Max_cycle;Signal;HPM_P1;HPM_P2
2022/07/16 00:02:38;;;;;;;17.88;8.65;;;;;;;15.99;61.29;102006.84;4992979;28;20520;-60
2022/07/16 00:05:04;;;;;;;16.45;8.60;;;;;;;16.11;61.21;102014.66;4993143;28;20072;-60
2022/07/16 00:07:29;;;;;;;16.60;8.18;;;;;;;16.13;61.18;102014.34;4992836;28;20088;-61
2022/07/16 00:09:55;;;;;;;14.25;7.93;;;;;;;16.12;60.92;102007.94;4992798;28;20382;-62
2022/07/16 00:12:20;;;;;;;15.25;8.27;;;;;;;16.15;60.98;102009.28;4991706;28;20100;-62
2022/07/16 00:14:45;;;;;;;17.23;8.80;;;;;;;16.12;61.06;102004.34;4992483;28;20036;-61
2022/07/16 00:17:11;;;;;;;16.38;8.38;;;;;;;16.11;60.99;102008.25;4992437;28;20045;-61
2022/07/16 00:19:36;;;;;;;15.55;8.10;;;;;;;16.12;61.20;102013.53;4992314;28;20023;-59
2022/07/16 00:22:02;;;;;;;15.48;8.30;;;;;;;16.13;61.41;102017.97;4992334;28;20057;-61
2022/07/16 00:24:27;;;;;;;17.50;8.48;;;;;;;16.11;61.53;102014.66;4992228;28;20132;-61
2022/07/16 00:26:53;;;;;;;15.57;8.18;;;;;;;16.09;61.63;102007.75;4992172;28;20170;-60
2022/07/16 00:29:19;;;;;;;16.63;8.45;;;;;;;16.13;61.69;102014.34;4992302;28;20041;-60
2022/07/16 00:31:46;;;;;;;18.95;8.77;;;;;;;16.14;61.75;102007.63;4992047;28;20419;-60
2022/07/16 00:34:12;;;;;;;17.15;8.88;;;;;;;16.14;61.86;102002.88;5005701;28;20172;-60
2022/07/16 00:36:39;;;;;;;17.55;9.00;;;;;;;16.16;61.89;102008.13;5011439;28;20638;-60
2022/07/16 00:39:06;;;;;;;18.02;9.00;;;;;;;16.19;61.77;102008.34;5011378;28;20167;-60
2022/07/16 00:41:32;;;;;;;17.27;8.73;;;;;;;16.24;61.89;102003.75;5011298;28;20026;-60
2022/07/16 00:44:00;;;;;;;17.95;8.80;;;;;;;16.18;61.96;101995.53;4993283;28;20022;-60
2022/07/16 00:46:26;;;;;;;17.30;8.48;;;;;;;16.28;62.16;102004.78;5011557;28;20026;-61
2022/07/16 00:48:51;;;;;;;20.30;8.73;;;;;;;16.27;61.84;102006.75;4993907;28;20041;-60
2022/07/16 00:51:17;;;;;;;17.02;8.07;;;;;;;16.31;61.78;102006.94;4993547;28;20096;-61
2022/07/16 00:53:43;;;;;;;17.35;8.30;;;;;;;16.31;61.97;102004.13;5011337;28;20022;-60
2022/07/16 00:56:11;;;;;;;17.92;8.90;;;;;;;16.24;62.05;102000.97;5010778;28;20085;-61
2022/07/16 00:58:41;;;;;;;16.92;8.73;;;;;;;16.23;61.94;102002.94;5011334;28;20105;-61
2022/07/16 01:01:07;;;;;;;17.23;8.88;;;;;;;16.27;62.10;102001.16;5011191;28;20038;-60
2022/07/16 01:03:34;;;;;;;18.80;8.90;;;;;;;16.28;62.01;102005.59;4993010;28;20505;-61
2022/07/16 01:05:59;;;;;;;18.42;8.90;;;;;;;16.25;61.96;102002.63;5011293;28;20101;-60
2022/07/16 01:08:25;;;;;;;17.35;8.70;;;;;;;16.25;62.09;102005.41;5010661;28;20523;-61
2022/07/16 01:10:51;;;;;;;17.75;9.05;;;;;;;16.25;62.04;102000.63;4992760;28;20338;-61
2022/07/16 01:13:17;;;;;;;18.63;9.07;;;;;;;16.23;62.10;102002.94;4992607;28;20033;-59
2022/07/16 01:15:43;;;;;;;17.73;9.23;;;;;;;16.20;62.37;101995.19;5010310;28;20030;-60
2022/07/16 01:18:08;;;;;;;17.45;8.60;;;;;;;16.16;62.57;101999.75;5026451;22;20475;-60
2022/07/16 01:20:34;;;;;;;18.92;8.95;;;;;;;16.14;62.88;102000.06;4994586;28;20032;-60
2022/07/16 01:22:59;;;;;;;17.10;8.35;;;;;;;16.08;62.98;101990.19;5012031;28;20060;-61
2022/07/16 01:25:25;;;;;;;19.38;8.60;;;;;;;16.04;63.13;101992.78;5012258;28;20093;-60
2022/07/16 01:27:51;;;;;;;17.40;8.82;;;;;;;15.99;63.68;101987.31;5012149;28;20034;-60
2022/07/16 01:30:16;;;;;;;17.65;8.90;;;;;;;15.96;63.84;101987.97;5012339;28;20052;-61
2022/07/16 01:32:41;;;;;;;17.10;8.93;;;;;;;15.97;63.58;101991.56;5012227;28;20551;-60
2022/07/16 01:35:07;;;;;;;18.92;9.48;;;;;;;15.93;63.83;101991.38;5012029;28;20030;-60
2022/07/16 01:37:33;;;;;;;17.17;9.07;;;;;;;15.95;63.56;101991.03;5011800;28;20398;-60
2022/07/16 01:39:58;;;;;;;19.58;9.45;;;;;;;15.94;63.42;101997.75;5012091;28;20386;-60
2022/07/16 01:42:24;;;;;;;16.80;8.40;;;;;;;15.97;63.19;101999.94;5012145;28;20049;-60
2022/07/16 01:44:49;;;;;;;17.95;9.43;;;;;;;15.98;63.29;102007.16;5011691;28;20037;-57
2022/07/16 01:47:14;;;;;;;16.95;9.25;;;;;;;16.00;62.91;101999.31;5012083;28;20156;-60
2022/07/16 01:49:40;;;;;;;17.63;8.75;;;;;;;15.90;63.27;101992.00;5011974;28;20028;-60
2022/07/16 01:52:11;;;;;;;18.73;9.48;;;;;;;15.89;63.04;101987.53;5011898;28;20405;-59
2022/07/16 01:54:44;;;;;;;16.70;8.95;;;;;;;15.90;63.29;101987.25;5011962;28;20454;-60
2022/07/16 01:57:10;;;;;;;18.88;9.43;;;;;;;15.94;63.58;101992.19;5012044;28;20053;-60
2022/07/16 01:59:36;;;;;;;17.77;9.30;;;;;;;15.90;63.68;101986.41;5011868;28;20026;-59
2022/07/16 02:02:01;;;;;;;18.08;9.05;;;;;;;15.91;63.61;101996.44;5011790;28;20060;-60
2022/07/16 02:04:27;;;;;;;18.88;9.02;;;;;;;15.87;63.99;101999.03;5011667;28;20433;-60
2022/07/16 02:06:52;;;;;;;19.20;9.63;;;;;;;15.83;64.07;101995.19;5011492;28;20068;-61
2022/07/16 02:09:18;;;;;;;18.90;10.13;;;;;;;15.79;64.10;101994.16;5012042;28;20026;-59
2022/07/16 02:11:43;;;;;;;16.75;9.57;;;;;;;15.79;64.38;101987.75;5011455;28;20030;-59
2022/07/16 02:14:08;;;;;;;18.40;9.88;;;;;;;15.77;64.50;101995.63;5011737;28;20038;-58
2022/07/16 02:16:33;;;;;;;17.85;10.10;;;;;;;15.77;63.94;101985.28;5011593;28;20054;-59
2022/07/16 02:18:59;;;;;;;18.98;9.65;;;;;;;15.76;64.59;101986.41;5011895;28;20049;-59
2022/07/16 02:21:24;;;;;;;17.52;9.98;;;;;;;15.75;64.93;101984.75;5011688;28;20018;-59
2022/07/16 02:23:49;;;;;;;18.45;9.63;;;;;;;15.72;65.09;101988.19;5011495;28;20026;-60
2022/07/16 02:26:15;;;;;;;18.48;9.38;;;;;;;15.71;64.92;101989.34;4993768;28;20033;-59
2022/07/16 02:28:40;;;;;;;18.85;9.88;;;;;;;15.66;65.07;101984.69;5011876;28;20331;-59
2022/07/16 02:31:05;;;;;;;18.17;9.82;;;;;;;15.71;65.04;101983.75;5011511;28;20095;-60
2022/07/16 02:33:31;;;;;;;18.60;9.63;;;;;;;15.73;64.79;101985.09;5011594;28;20029;-59
2022/07/16 02:35:56;;;;;;;18.13;9.60;;;;;;;15.72;64.54;101986.22;5012278;28;20029;-59
2022/07/16 02:38:21;;;;;;;18.63;10.40;;;;;;;15.75;64.55;101984.75;5015493;28;20037;-59
2022/07/16 02:40:46;;;;;;;18.92;10.38;;;;;;;15.77;64.60;101990.06;5015462;28;20100;-59
2022/07/16 02:43:13;;;;;;;19.60;10.32;;;;;;;15.79;64.69;101988.59;5015240;28;20026;-59
2022/07/16 02:45:40;;;;;;;19.85;10.07;;;;;;;15.79;64.61;101984.97;5015413;28;20053;-59
2022/07/16 02:48:07;;;;;;;18.80;10.60;;;;;;;15.82;64.58;101987.13;4997860;28;20045;-60
2022/07/16 02:50:32;;;;;;;20.33;11.45;;;;;;;15.80;64.30;101973.50;5014940;28;20025;-60
2022/07/16 02:52:58;;;;;;;20.58;11.40;;;;;;;15.84;64.23;101982.09;5015116;28;20038;-60
2022/07/16 02:55:23;;;;;;;20.02;11.15;;;;;;;15.85;64.04;101976.19;5015201;28;20034;-60
2022/07/16 02:57:49;;;;;;;19.30;11.55;;;;;;;15.84;64.26;101971.75;5015047;28;20037;-59
2022/07/16 03:00:15;;;;;;;20.83;11.23;;;;;;;15.85;63.99;101972.59;5014941;28;20034;-60
2022/07/16 03:02:41;;;;;;;19.98;11.63;;;;;;;15.85;63.99;101972.59;4997257;28;20462;-60
2022/07/16 03:05:07;;;;;;;20.08;11.00;;;;;;;15.87;64.10;101970.31;5014636;28;20113;-60
2022/07/16 03:07:32;;;;;;;19.90;11.65;;;;;;;15.86;63.98;101971.44;5015248;28;20026;-60
2022/07/16 03:09:58;;;;;;;21.08;11.52;;;;;;;15.86;64.01;101977.84;5014402;28;20370;-59
2022/07/16 03:12:23;;;;;;;19.88;11.45;;;;;;;15.87;63.93;101978.69;5014204;28;20026;-59
2022/07/16 03:14:48;;;;;;;20.27;11.13;;;;;;;15.84;64.29;101977.31;5014727;28;20129;-60
2022/07/16 03:17:14;;;;;;;19.98;10.88;;;;;;;15.86;64.17;101979.81;4996377;28;20099;-59
2022/07/16 03:19:40;;;;;;;19.33;10.65;;;;;;;15.86;64.04;101988.19;5014395;28;20028;-59
2022/07/16 03:22:06;;;;;;;18.60;10.40;;;;;;;15.88;64.17;101985.88;4996786;28;20479;-59
2022/07/16 03:24:32;;;;;;;20.95;10.75;;;;;;;15.87;64.41;101995.44;5014141;28;20028;-59
2022/07/16 03:26:57;;;;;;;19.33;10.60;;;;;;;15.87;64.13;101987.06;5014701;28;20421;-59
2022/07/16 03:29:23;;;;;;;18.60;10.10;;;;;;;15.85;64.42;101998.50;5014798;28;20029;-60
2022/07/16 03:31:48;;;;;;;19.42;11.43;;;;;;;15.86;64.42;101988.19;5012998;28;20048;-60
2022/07/16 03:34:14;;;;;;;23.00;10.90;;;;;;;15.84;64.47;101998.84;5014708;28;20022;-60
2022/07/16 03:36:39;;;;;;;19.48;11.10;;;;;;;15.83;64.46;101992.38;5014458;28;20029;-60
2022/07/16 03:39:04;;;;;;;20.02;10.65;;;;;;;15.87;64.85;102010.19;5014624;28;20026;-60
2022/07/16 03:41:31;;;;;;;21.05;11.10;;;;;;;15.93;64.79;102007.28;5014481;28;20022;-60
2022/07/16 03:43:58;;;;;;;22.27;12.13;;;;;;;15.90;64.66;102005.94;5014217;28;20025;-59
2022/07/16 03:46:24;;;;;;;23.25;11.93;;;;;;;15.91;65.21;102013.19;5013836;28;20489;-59
2022/07/16 03:48:49;;;;;;;20.75;11.65;;;;;;;15.92;65.33;102011.22;4995614;28;20030;-60
2022/07/16 03:51:14;;;;;;;20.88;12.15;;;;;;;15.89;65.80;102012.66;5013724;28;20105;-59
2022/07/16 03:53:40;;;;;;;21.08;11.85;;;;;;;15.88;65.99;102006.25;5013901;28;20026;-59
2022/07/16 03:56:06;;;;;;;22.55;11.43;;;;;;;15.92;66.75;102017.63;5014254;28;20484;-59
2022/07/16 03:58:31;;;;;;;19.30;11.15;;;;;;;15.90;67.56;102022.69;5014015;28;20041;-58
2022/07/16 04:00:56;;;;;;;19.52;10.57;;;;;;;15.96;67.40;102018.66;5014284;28;20484;-60
2022/07/16 04:03:23;;;;;;;19.65;11.18;;;;;;;15.95;67.68;102022.59;5014061;28;20422;-60
2022/07/16 04:05:48;;;;;;;19.60;11.18;;;;;;;16.00;67.76;102025.25;5014133;28;20034;-58
2022/07/16 04:08:13;;;;;;;21.15;10.65;;;;;;;16.00;67.97;102024.44;5014300;28;20036;-60
2022/07/16 04:10:39;;;;;;;19.15;11.00;;;;;;;15.94;68.44;102029.31;5014254;28;20091;-59
2022/07/16 04:13:04;;;;;;;19.10;10.07;;;;;;;15.97;68.79;102033.44;5012708;28;20064;-59
2022/07/16 04:15:30;;;;;;;18.95;10.20;;;;;;;15.93;69.26;102030.44;5013654;28;20127;-58
2022/07/16 04:17:56;;;;;;;18.40;10.60;;;;;;;15.93;69.83;102035.19;5013859;28;20058;-59
2022/07/16 04:20:21;;;;;;;18.65;10.18;;;;;;;15.93;70.15;102030.44;5014117;28;20580;-59
2022/07/16 04:22:46;;;;;;;18.08;10.10;;;;;;;15.89;70.62;102035.81;4996196;28;20036;-59
2022/07/16 04:25:13;;;;;;;19.42;10.75;;;;;;;15.79;72.24;102036.03;5013862;28;20500;-58
2022/07/16 04:27:42;;;;;;;18.67;10.48;;;;;;;15.73;72.87;102045.63;5013892;28;20050;-58
2022/07/16 04:30:09;;;;;;;18.92;10.80;;;;;;;15.73;72.77;102032.50;5013465;28;20033;-58
2022/07/16 04:32:35;;;;;;;19.85;10.57;;;;;;;15.69;73.87;102042.63;5013337;28;20073;-58
2022/07/16 04:35:01;;;;;;;22.38;10.60;;;;;;;15.72;73.32;102042.00;5013301;28;20075;-58
2022/07/16 04:37:26;;;;;;;19.00;10.65;;;;;;;15.79;73.44;102035.19;5013173;28;20038;-58
2022/07/16 04:39:52;;;;;;;19.20;10.10;;;;;;;15.83;73.71;102037.03;5012887;28;20030;-59
2022/07/16 04:42:17;;;;;;;20.17;10.48;;;;;;;15.79;75.32;102044.38;5013123;28;20030;-59
2022/07/16 04:44:43;;;;;;;20.30;10.65;;;;;;;15.77;75.59;102048.63;5013138;28;20037;-60
2022/07/16 04:47:08;;;;;;;19.67;10.88;;;;;;;15.76;76.16;102047.78;5013058;28;20033;-59
2022/07/16 04:49:34;;;;;;;19.98;10.90;;;;;;;15.77;76.86;102059.78;5012987;28;20033;-58
2022/07/16 04:52:00;;;;;;;19.05;10.70;;;;;;;15.71;77.74;102050.72;5012784;28;20056;-59
2022/07/16 04:54:25;;;;;;;19.20;10.50;;;;;;;15.77;77.87;102059.78;5012612;28;20037;-59
2022/07/16 04:56:50;;;;;;;19.20;10.70;;;;;;;15.82;78.22;102054.09;5012656;28;20323;-59
2022/07/16 04:59:16;;;;;;;19.75;11.60;;;;;;;15.87;78.61;102065.19;5011943;28;20105;-60
2022/07/16 05:01:41;;;;;;;19.98;11.25;;;;;;;15.85;79.94;102070.25;5012409;28;20076;-59
2022/07/16 05:04:06;;;;;;;19.80;10.35;;;;;;;15.87;80.24;102070.78;5011886;28;20366;-60
2022/07/16 05:06:32;;;;;;;20.00;10.57;;;;;;;15.93;79.96;102071.44;5012430;28;20036;-59
2022/07/16 05:08:57;;;;;;;20.35;11.07;;;;;;;16.04;80.55;102073.72;5012040;28;20033;-59
2022/07/16 05:11:23;;;;;;;19.85;11.13;;;;;;;16.04;80.88;102068.16;5012084;28;20026;-59
2022/07/16 05:13:51;;;;;;;20.45;11.32;;;;;;;16.14;81.02;102078.25;5012237;28;20394;-59
2022/07/16 05:16:16;;;;;;;18.77;11.43;;;;;;;16.19;81.01;102077.28;5012174;28;20105;-59
2022/07/16 05:18:41;;;;;;;21.88;11.02;;;;;;;16.29;80.79;102079.84;5011447;28;20219;-61
2022/07/16 05:21:07;;;;;;;19.90;11.30;;;;;;;16.32;81.48;102084.81;5012192;28;20026;-59
2022/07/16 05:23:33;;;;;;;20.02;11.57;;;;;;;16.36;81.76;102079.44;5011993;28;20184;-59
2022/07/16 05:25:59;;;;;;;18.70;10.73;;;;;;;16.42;81.97;102082.94;5011560;28;20070;-60
2022/07/16 05:28:24;;;;;;;20.98;10.93;;;;;;;16.44;81.66;102086.19;5007773;28;20087;-59
2022/07/16 05:30:49;;;;;;;18.73;11.15;;;;;;;16.47;82.02;102083.63;5000440;28;20033;-59
2022/07/16 05:33:14;;;;;;;19.65;11.05;;;;;;;16.59;81.53;102087.78;5000335;28;20061;-59
2022/07/16 05:35:40;;;;;;;19.80;11.18;;;;;;;16.61;81.59;102093.91;5000418;28;20034;-60
2022/07/16 05:38:05;;;;;;;19.35;11.43;;;;;;;16.66;81.45;102085.41;5000993;28;20049;-59
2022/07/16 05:40:30;;;;;;;18.52;10.75;;;;;;;16.79;80.29;102084.50;5002430;28;20037;-59
2022/07/16 05:42:56;;;;;;;19.88;11.05;;;;;;;16.79;81.34;102098.47;4997825;28;20036;-59
2022/07/16 05:45:21;;;;;;;20.50;11.10;;;;;;;16.74;80.91;102094.97;5002889;28;20030;-60
2022/07/16 05:47:46;;;;;;;19.52;10.85;;;;;;;16.76;80.52;102098.28;5000435;28;20065;-58
2022/07/16 05:50:12;;;;;;;18.95;10.20;;;;;;;16.61;81.37;102094.75;4999897;28;20014;-59
2022/07/16 05:52:37;;;;;;;18.98;10.43;;;;;;;16.62;81.62;102099.19;5002213;28;20446;-59
2022/07/16 05:55:03;;;;;;;19.35;10.02;;;;;;;16.74;80.53;102101.41;4999285;28;20026;-59
2022/07/16 05:57:28;;;;;;;17.52;9.73;;;;;;;16.73;80.66;102105.34;5001562;28;20044;-59
2022/07/16 05:59:53;;;;;;;19.17;9.75;;;;;;;16.74;79.78;102093.03;4978737;28;20022;-60
2022/07/16 06:02:19;;;;;;;18.70;10.05;;;;;;;16.79;80.23;102106.84;5002554;28;20018;-60
2022/07/16 06:04:44;;;;;;;17.95;9.20;;;;;;;16.77;79.19;102111.94;5010671;28;20113;-59
2022/07/16 06:07:10;;;;;;;16.42;9.27;;;;;;;16.73;78.68;102112.88;5010500;28;20037;-60
2022/07/16 06:09:35;;;;;;;16.58;9.02;;;;;;;16.73;78.75;102116.53;5011268;28;20045;-59
2022/07/16 06:12:01;;;;;;;16.48;9.13;;;;;;;16.73;78.58;102115.69;5010128;28;20038;-59
2022/07/16 06:14:26;;;;;;;16.77;9.00;;;;;;;16.82;78.44;102125.78;5011193;28;20037;-60
2022/07/16 06:16:51;;;;;;;16.52;8.75;;;;;;;16.96;78.17;102119.31;5010939;28;20026;-60
2022/07/16 06:19:17;;;;;;;17.17;8.68;;;;;;;17.08;77.25;102116.78;5010992;28;20026;-59
2022/07/16 06:21:42;;;;;;;17.20;9.00;;;;;;;17.19;76.54;102127.69;5011086;28;20382;-59
2022/07/16 06:24:07;;;;;;;18.48;10.25;;;;;;;17.30;75.69;102123.47;5011828;28;20037;-59
2022/07/16 06:26:33;;;;;;;16.90;8.88;;;;;;;17.37;75.21;102128.63;5010972;28;20505;-60
2022/07/16 06:28:58;;;;;;;16.30;8.80;;;;;;;17.51;75.23;102129.31;5011320;28;20108;-59
2022/07/16 06:31:24;;;;;;;17.13;9.10;;;;;;;17.59;74.49;102136.94;5011555;28;20053;-59
2022/07/16 06:33:49;;;;;;;15.00;8.55;;;;;;;17.65;72.49;102140.41;4993596;28;20038;-59
2022/07/16 06:36:14;;;;;;;14.30;8.30;;;;;;;17.60;71.77;102146.97;5011305;28;20030;-59
2022/07/16 06:38:40;;;;;;;13.98;7.70;;;;;;;17.51;71.11;102139.72;5010773;28;20099;-60
2022/07/16 06:41:05;;;;;;;12.20;7.40;;;;;;;17.51;69.97;102151.72;5011159;28;20110;-59
2022/07/16 06:43:30;;;;;;;13.10;7.50;;;;;;;17.58;70.59;102157.66;5011036;28;20030;-60
2022/07/16 06:45:56;;;;;;;12.90;7.50;;;;;;;17.60;68.72;102151.75;5011194;28;20440;-60
2022/07/16 06:48:22;;;;;;;12.13;7.45;;;;;;;17.66;67.56;102161.66;5010827;28;20456;-60
2022/07/16 06:50:47;;;;;;;13.65;7.50;;;;;;;17.72;67.51;102160.34;5010803;28;20505;-60
2022/07/16 06:53:13;;;;;;;12.00;7.05;;;;;;;17.81;66.55;102157.59;5010924;28;20084;-59
2022/07/16 06:55:38;;;;;;;12.13;7.30;;;;;;;17.83;66.78;102166.50;5010570;28;20025;-60
2022/07/16 06:58:03;;;;;;;14.07;7.90;;;;;;;17.89;66.69;102165.19;5010934;28;20058;-62
2022/07/16 07:00:29;;;;;;;13.48;7.72;;;;;;;17.97;64.95;102168.38;5010742;28;20022;-60
2022/07/16 07:02:54;;;;;;;13.15;7.60;;;;;;;18.09;65.79;102174.19;5007639;28;20038;-60
2022/07/16 07:05:19;;;;;;;13.70;7.20;;;;;;;18.20;64.00;102186.72;5001366;28;20442;-61
2022/07/16 07:07:45;;;;;;;10.00;6.88;;;;;;;18.22;62.92;102183.59;5000107;28;20046;-60
2022/07/16 07:10:10;;;;;;;13.18;6.88;;;;;;;18.17;61.98;102184.56;5010904;28;20030;-60
2022/07/16 07:12:36;;;;;;;12.20;6.68;;;;;;;18.26;61.50;102195.81;4992953;28;20026;-61
2022/07/16 07:15:01;;;;;;;8.90;6.50;;;;;;;18.35;60.29;102196.66;5010840;28;20034;-61
2022/07/16 07:17:27;;;;;;;11.18;6.80;;;;;;;18.39;59.32;102200.44;5010878;28;20046;-60
2022/07/16 07:19:52;;;;;;;10.68;7.18;;;;;;;18.40;60.19;102202.09;5011028;28;20463;-60
2022/07/16 07:22:17;;;;;;;12.25;7.10;;;;;;;18.39;60.21;102202.44;5012148;28;20022;-61
2022/07/16 07:24:43;;;;;;;13.73;7.22;;;;;;;18.44;60.13;102207.03;5014234;28;20021;-61
2022/07/16 07:27:08;;;;;;;18.33;7.47;;;;;;;18.52;58.39;102217.44;5014350;28;20037;-61
2022/07/16 07:29:33;;;;;;;12.93;6.82;;;;;;;18.53;56.30;102219.91;5011275;28;20030;-60
2022/07/16 07:32:00;;;;;;;11.10;6.78;;;;;;;18.50;56.46;102212.16;5001595;28;20526;-60
2022/07/16 07:34:25;;;;;;;12.32;6.70;;;;;;;18.50;54.88;102228.16;4994521;28;20105;-60
2022/07/16 07:36:51;;;;;;;13.50;7.00;;;;;;;18.45;55.71;102237.53;4994719;28;20109;-60
2022/07/16 07:39:16;;;;;;;13.43;6.93;;;;;;;18.41;56.74;102222.53;4994591;28;20478;-60
2022/07/16 07:41:41;;;;;;;15.65;7.28;;;;;;;18.51;56.49;102225.03;4994779;28;20112;-61
2022/07/16 07:44:07;;;;;;;11.57;6.82;;;;;;;18.42;56.75;102224.16;4976758;28;20464;-60
2022/07/16 07:46:32;;;;;;;14.48;6.90;;;;;;;18.42;57.20;102226.16;4979751;28;20074;-61
2022/07/16 07:48:57;;;;;;;10.40;6.60;;;;;;;18.39;57.46;102225.66;4994377;28;20052;-61
2022/07/16 07:51:23;;;;;;;12.45;7.00;;;;;;;18.30;56.92;102229.59;5011189;28;20037;-61
2022/07/16 07:53:49;;;;;;;12.80;6.90;;;;;;;18.31;56.67;102231.25;5014122;28;20042;-60
2022/07/16 07:56:14;;;;;;;12.30;7.03;;;;;;;18.34;56.49;102225.81;5013907;28;20030;-60
2022/07/16 07:58:39;;;;;;;14.27;6.60;;;;;;;18.34;54.76;102222.16;5013516;28;20060;-60
2022/07/16 08:01:05;;;;;;;10.98;6.50;;;;;;;18.40;54.54;102226.50;5014091;28;20026;-59
2022/07/16 08:03:30;;;;;;;15.00;6.80;;;;;;;18.47;53.70;102229.63;5013377;28;20033;-61
2022/07/16 08:05:55;;;;;;;14.93;7.10;;;;;;;18.55;53.99;102231.63;5013895;28;20029;-60
2022/07/16 08:08:21;;;;;;;13.07;6.68;;;;;;;18.64;53.56;102239.22;4995469;28;20490;-61
2022/07/16 08:10:46;;;;;;;11.43;6.40;;;;;;;18.78;52.94;102239.06;5011281;28;20113;-60
2022/07/16 08:13:12;;;;;;;9.15;6.30;;;;;;;18.86;52.63;102236.28;4995198;28;20049;-61
2022/07/16 08:15:38;;;;;;;11.10;6.70;;;;;;;18.90;53.42;102242.03;4994370;28;20062;-62
2022/07/16 08:18:03;;;;;;;12.35;6.53;;;;;;;18.89;52.98;102233.97;4993430;28;20203;-62
2022/07/16 08:20:29;;;;;;;11.15;6.43;;;;;;;18.94;53.44;102236.63;4993628;28;20503;-62
2022/07/16 08:22:54;;;;;;;13.13;6.50;;;;;;;19.00;53.00;102240.91;4993229;28;20448;-61
2022/07/16 08:28:03;;;;;;;10.70;6.57;;;;;;;19.34;53.55;102253.28;4992989;28;20049;-62
2022/07/16 08:30:28;;;;;;;12.80;7.05;;;;;;;19.56;53.67;102266.25;4993259;28;20030;-62
2022/07/16 08:32:54;;;;;;;12.55;6.80;;;;;;;19.75;52.77;102243.41;4993256;28;20115;-62
2022/07/16 08:35:19;;;;;;;12.57;6.78;;;;;;;19.76;53.90;102252.69;5012188;28;20036;-61
2022/07/16 08:37:46;;;;;;;12.25;7.07;;;;;;;19.79;53.39;102257.59;5011585;28;20431;-62
2022/07/16 08:40:15;;;;;;;11.20;6.40;;;;;;;19.53;53.70;102266.91;5012734;28;20105;-62
2022/07/16 08:42:41;;;;;;;13.90;7.13;;;;;;;19.35;52.96;102256.88;5012655;28;20469;-62
2022/07/16 08:45:09;;;;;;;14.55;6.90;;;;;;;19.44;53.29;102274.53;4995131;28;20034;-61
2022/07/16 08:47:36;;;;;;;15.30;6.60;;;;;;;19.39;53.42;102281.13;5013131;28;20034;-61
2022/07/16 08:50:04;;;;;;;10.43;6.47;;;;;;;19.20;53.54;102273.09;5012992;28;20445;-61
2022/07/16 08:52:30;;;;;;;12.50;6.70;;;;;;;19.22;53.43;102296.03;5012930;28;20022;-61
2022/07/16 08:54:56;;;;;;;14.70;6.75;;;;;;;19.41;52.76;102286.44;5013276;28;20352;-61
2022/07/16 08:57:23;;;;;;;10.95;6.35;;;;;;;19.45;49.74;102298.63;5013035;28;20100;-61
2022/07/16 08:59:52;;;;;;;11.65;6.32;;;;;;;19.54;49.78;102293.84;5012805;28;20037;-62
2022/07/16 09:02:18;;;;;;;12.75;6.30;;;;;;;19.77;49.00;102285.22;5013057;28;20089;-62
2022/07/16 09:04:44;;;;;;;13.02;6.68;;;;;;;20.07;48.03;102283.31;5012869;28;20026;-61
2022/07/16 09:07:14;;;;;;;11.98;6.53;;;;;;;20.23;47.72;102285.56;5012741;28;20056;-61
2022/07/16 09:09:40;;;;;;;12.23;6.80;;;;;;;20.45;47.58;102286.44;5012698;28;20034;-61
2022/07/16 09:12:06;;;;;;;15.75;6.90;;;;;;;20.49;47.22;102291.03;5012922;28;20037;-61
2022/07/16 09:14:31;;;;;;;11.13;6.22;;;;;;;20.49;46.85;102293.03;5012106;28;20048;-61
2022/07/16 09:16:56;;;;;;;11.15;6.43;;;;;;;20.56;45.87;102301.75;4993516;28;20541;-61
2022/07/16 09:19:28;;;;;;;11.98;6.53;;;;;;;20.42;46.11;102291.56;5011320;28;20040;-61
2022/07/16 09:22:12;;;;;;;12.07;6.63;;;;;;;20.09;46.88;102305.44;5011630;28;20482;-62
2022/07/16 09:24:45;;;;;;;10.57;6.57;;;;;;;20.19;46.38;102296.63;5010707;28;20034;-61
2022/07/16 09:27:14;;;;;;;9.47;6.47;;;;;;;20.33;45.87;102304.03;5011191;28;20089;-61
2022/07/16 09:30:02;;;;;;;11.90;6.30;;;;;;;20.48;47.05;102291.38;5011200;28;20092;-61
2022/07/16 09:32:39;;;;;;;13.23;6.40;;;;;;;20.39;47.03;102313.91;4993716;28;20212;-61
2022/07/16 09:35:15;;;;;;;9.98;6.53;;;;;;;20.30;46.96;102308.34;5011544;28;20029;-61
2022/07/16 09:37:59;;;;;;;11.13;6.63;;;;;;;20.37;47.54;102299.38;5011897;28;20419;-62
2022/07/16 09:40:35;;;;;;;12.77;6.65;;;;;;;20.49;47.74;102310.72;5012358;28;20026;-61
2022/07/16 09:43:03;;;;;;;12.38;6.55;;;;;;;20.66;46.59;102309.81;5011985;28;20041;-62
2022/07/16 09:45:28;;;;;;;13.32;6.68;;;;;;;20.68;46.18;102309.44;5011825;28;20053;-61
2022/07/16 09:47:54;;;;;;;11.93;6.60;;;;;;;20.72;46.17;102304.81;5011855;28;20473;-61
2022/07/16 09:50:20;;;;;;;11.60;6.05;;;;;;;20.74;45.97;102319.34;5011739;28;20030;-61
2022/07/16 09:52:45;;;;;;;12.68;6.47;;;;;;;20.68;45.72;102327.16;5012293;28;20187;-61
2022/07/16 09:55:11;;;;;;;9.27;6.68;;;;;;;20.54;45.66;102320.94;5011782;28;20034;-61
2022/07/16 09:57:36;;;;;;;14.77;6.38;;;;;;;20.63;45.64;102324.53;5011478;28;20056;-62
2022/07/16 10:00:04;;;;;;;11.52;6.20;;;;;;;20.56;45.78;102318.63;5011825;28;20045;-61
2022/07/16 10:02:30;;;;;;;12.77;6.50;;;;;;;20.68;46.32;102326.31;5011839;28;20382;-61
2022/07/16 10:04:56;;;;;;;11.40;6.35;;;;;;;20.98;45.48;102326.31;5011739;28;20022;-63
2022/07/16 10:07:21;;;;;;;10.05;6.15;;;;;;;21.13;44.91;102328.53;5011778;28;20041;-61
2022/07/16 10:09:47;;;;;;;11.90;6.40;;;;;;;21.37;44.11;102321.38;4994101;28;20025;-63
2022/07/16 10:12:15;;;;;;;9.65;6.30;;;;;;;21.46;44.23;102332.56;5011956;28;20498;-62
2022/07/16 10:14:43;;;;;;;13.80;6.68;;;;;;;21.43;43.50;102325.63;5011760;28;20509;-61
2022/07/16 10:17:14;;;;;;;11.20;6.20;;;;;;;21.52;43.44;102328.38;5011166;28;20434;-61
2022/07/16 10:19:40;;;;;;;10.27;6.60;;;;;;;21.49;43.41;102326.25;5011578;28;20034;-61
2022/07/16 10:22:17;;;;;;;10.52;6.20;;;;;;;21.56;41.54;102332.13;5011453;28;20030;-61
2022/07/16 10:24:48;;;;;;;9.30;6.22;;;;;;;21.30;42.07;102330.38;5011607;28;20311;-61
2022/07/16 10:27:30;;;;;;;13.30;6.65;;;;;;;21.06;43.26;102338.69;5011552;28;20029;-63
2022/07/16 10:30:15;;;;;;;9.93;6.68;;;;;;;21.29;42.70;102339.97;4993985;28;20045;-61
2022/07/16 10:33:10;;;;;;;13.45;6.78;;;;;;;21.65;42.57;102346.16;5011592;28;20130;-63
2022/07/16 10:35:49;;;;;;;11.50;6.30;;;;;;;21.18;40.80;102355.63;5011206;28;20038;-61
2022/07/16 10:38:26;;;;;;;10.48;6.18;;;;;;;20.88;41.59;102345.25;5012071;28;20026;-62
2022/07/16 10:41:07;;;;;;;9.52;6.05;;;;;;;21.01;42.70;102348.97;5011627;28;20119;-61
2022/07/16 10:43:33;;;;;;;13.43;5.88;;;;;;;21.37;42.60;102348.69;5011573;28;20117;-61
2022/07/16 10:46:05;;;;;;;10.50;6.00;;;;;;;21.44;42.17;102355.44;4993848;28;20110;-61
2022/07/16 10:48:36;;;;;;;14.38;6.32;;;;;;;21.65;41.13;102346.16;5007503;28;20030;-60
2022/07/16 10:51:17;;;;;;;9.13;6.10;;;;;;;21.86;41.09;102353.75;4997413;28;20137;-61
2022/07/16 10:53:58;;;;;;;10.88;6.22;;;;;;;21.68;40.14;102356.72;4999797;28;20038;-61
2022/07/16 10:56:35;;;;;;;9.65;5.90;;;;;;;21.13;40.05;102369.91;4981934;28;20120;-61
2022/07/16 10:59:05;;;;;;;9.00;5.72;;;;;;;21.25;39.90;102357.91;5005174;28;20030;-61
2022/07/16 11:01:31;;;;;;;12.65;6.00;;;;;;;21.47;39.22;102360.38;5002590;28;20516;-61
2022/07/16 11:03:56;;;;;;;9.45;5.80;;;;;;;21.59;39.24;102365.25;4987767;28;20053;-61
2022/07/16 11:06:22;;;;;;;10.40;5.80;;;;;;;21.78;39.54;102361.09;5004834;28;20113;-61
2022/07/16 11:08:58;;;;;;;10.32;5.50;;;;;;;21.78;39.96;102378.81;5007265;28;20034;-61
2022/07/16 11:11:32;;;;;;;9.23;5.50;;;;;;;21.55;38.94;102369.91;4997067;28;20034;-61
2022/07/16 11:13:58;;;;;;;14.27;6.15;;;;;;;21.22;38.63;102370.69;4994479;28;20057;-61
2022/07/16 11:16:24;;;;;;;13.63;6.82;;;;;;;21.30;38.62;102381.03;4994206;28;20117;-61